sensor_id;sensor_type;location;lat;lon;timestamp;P1;durP1;ratioP1;P2;durP2;ratioP2
26824;SDS011;14402;48.178;11.566;2022-09-01T00:00:27;10.8;;;9.8;;
26824;SDS011;14402;48.178;11.566;2022-09-01T00:00:57;10.8;;;9.8;;
26824;SDS011;14402;48.178;11.566;2022-09-01T00:01:28;10.8;;;9.8;;
26824;SDS011;14402;48.178;11.566;2022-09-01T00:01:57;10.8;;;9.8;;
26824;SDS011;14402;48.178;11.566;2022-09-01T00:02:28;10.8;;;9.8;;
26824;SDS011;14402;48.178;11.566;2022-09-01T00:02:57;10.8;;;9.8;;
26824;SDS011;14402;48.178;11.566;2022-09-01T00:03:28;10.6;;;9.6;;
26824;SDS011;14402;48.178;11.566;2022-09-01T00:03:58;10.3;;;9.4;;
26824;SDS011;14402;48.178;11.566;2022-09-01T00:04:28;10.3;;;9.4;;
26824;SDS011;14402;48.178;11.566;2022-09-01T00:04:58;10.3;;;9.4;;
26824;SDS011;14402;48.178;11.566;2022-09-01T00:05:28;10.8;;;9.7;;
26824;SDS011;14402;48.178;11.566;2022-09-01T00:05:58;11.2;;;10.0;;
26824;SDS011;14402;48.178;11.566;2022-09-01T00:06:29;11.2;;;10.0;;
26824;SDS011;14402;48.178;11.566;2022-09-01T00:06:58;11.2;;;10.0;;
26824;SDS011;14402;48.178;11.566;2022-09-01T00:07:28;11.0;;;10.0;;
26824;SDS011;14402;48.178;11.566;2022-09-01T00:07:58;10.9;;;10.0;;
26824;SDS011;14402;48.178;11.566;2022-09-01T00:08:29;10.9;;;10.0;;
26824;SDS011;14402;48.178;11.566;2022-09-01T00:09:00;10.9;;;10.0;;
26824;SDS011;14402;48.178;11.566;2022-09-01T00:09:29;11.0;;;10.1;;
26824;SDS011;14402;48.178;11.566;2022-09-01T00:09:59;11.1;;;10.1;;
26824;SDS011;14402;48.178;11.566;2022-09-01T00:10:29;11.1;;;10.1;;
26824;SDS011;14402;48.178;11.566;2022-09-01T00:10:59;11.1;;;10.1;;
26824;SDS011;14402;48.178;11.566;2022-09-01T00:11:29;10.9;;;9.9;;
26824;SDS011;14402;48.178;11.566;2022-09-01T00:11:59;10.6;;;9.7;;
26824;SDS011;14402;48.178;11.566;2022-09-01T00:12:29;10.6;;;9.7;;
26824;SDS011;14402;48.178;11.566;2022-09-01T00:12:59;10.6;;;9.7;;
26824;SDS011;14402;48.178;11.566;2022-09-01T00:13:29;10.6;;;9.7;;
26824;SDS011;14402;48.178;11.566;2022-09-01T00:14:00;10.6;;;9.7;;
26824;SDS011;14402;48.178;11.566;2022-09-01T00:14:30;10.6;;;9.7;;
26824;SDS011;14402;48.178;11.566;2022-09-01T00:15:00;10.6;;;9.7;;
26824;SDS011;14402;48.178;11.566;2022-09-01T00:15:30;11.5;;;9.9;;
26824;SDS011;14402;48.178;11.566;2022-09-01T00:16:00;12.3;;;10.0;;
26824;SDS011;14402;48.178;11.566;2022-09-01T00:16:30;12.3;;;10.0;;
26824;SDS011;14402;48.178;11.566;2022-09-01T00:17:02;12.3;;;10.0;;
26824;SDS011;14402;48.178;11.566;2022-09-01T00:17:31;11.5;;;9.9;;
26824;SDS011;14402;48.178;11.566;2022-09-01T00:18:00;10.6;;;9.7;;
26824;SDS011;14402;48.178;11.566;2022-09-01T00:18:30;10.6;;;9.7;;
26824;SDS011;14402;48.178;11.566;2022-09-01T00:19:00;10.6;;;9.7;;
26824;SDS011;14402;48.178;11.566;2022-09-01T00:19:31;11.0;;;10.0;;
26824;SDS011;14402;48.178;11.566;2022-09-01T00:20:00;11.4;;;10.4;;
26824;SDS011;14402;48.178;11.566;2022-09-01T00:20:31;11.4;;;10.4;;
26824;SDS011;14402;48.178;11.566;2022-09-01T00:21:01;11.4;;;10.4;;
26824;SDS011;14402;48.178;11.566;2022-09-01T00:21:35;11.6;;;10.5;;
26824;SDS011;14402;48.178;11.566;2022-09-01T00:22:01;11.8;;;10.6;;
26824;SDS011;14402;48.178;11.566;2022-09-01T00:22:31;11.8;;;10.6;;
26824;SDS011;14402;48.178;11.566;2022-09-01T00:23:01;11.8;;;10.6;;
26824;SDS011;14402;48.178;11.566;2022-09-01T00:23:31;11.6;;;10.6;;
26824;SDS011;14402;48.178;11.566;2022-09-01T00:24:01;11.5;;;10.5;;
26824;SDS011;14402;48.178;11.566;2022-09-01T00:24:31;11.5;;;10.5;;
26824;SDS011;14402;48.178;11.566;2022-09-01T00:25:02;11.5;;;10.5;;
26824;SDS011;14402;48.178;11.566;2022-09-01T00:25:31;11.4;;;10.4;;
26824;SDS011;14402;48.178;11.566;2022-09-01T00:26:01;11.3;;;10.3;;
26824;SDS011;14402;48.178;11.566;2022-09-01T00:26:31;11.3;;;10.3;;
26824;SDS011;14402;48.178;11.566;2022-09-01T00:27:02;11.3;;;10.3;;
26824;SDS011;14402;48.178;11.566;2022-09-01T00:27:32;11.6;;;10.6;;
26824;SDS011;14402;48.178;11.566;2022-09-01T00:28:02;11.9;;;10.9;;
26824;SDS011;14402;48.178;11.566;2022-09-01T00:28:32;11.9;;;10.9;;
26824;SDS011;14402;48.178;11.566;2022-09-01T00:29:02;11.9;;;10.9;;
26824;SDS011;14402;48.178;11.566;2022-09-01T00:29:32;11.8;;;10.8;;
26824;SDS011;14402;48.178;11.566;2022-09-01T00:30:02;11.6;;;10.6;;
26824;SDS011;14402;48.178;11.566;2022-09-01T00:30:32;11.6;;;10.6;;
26824;SDS011;14402;48.178;11.566;2022-09-01T00:31:03;11.6;;;10.6;;
26824;SDS011;14402;48.178;11.566;2022-09-01T00:31:32;11.8;;;10.8;;
26824;SDS011;14402;48.178;11.566;2022-09-01T00:32:02;12.0;;;11.0;;
26824;SDS011;14402;48.178;11.566;2022-09-01T00:32:32;12.0;;;11.0;;
26824;SDS011;14402;48.178;11.566;2022-09-01T00:33:03;12.0;;;11.0;;
26824;SDS011;14402;48.178;11.566;2022-09-01T00:33:33;11.9;;;10.9;;
26824;SDS011;14402;48.178;11.566;2022-09-01T00:34:03;11.9;;;10.9;;
26824;SDS011;14402;48.178;11.566;2022-09-01T00:34:33;11.9;;;10.9;;
26824;SDS011;14402;48.178;11.566;2022-09-01T00:35:03;11.9;;;10.9;;
26824;SDS011;14402;48.178;11.566;2022-09-01T00:35:33;12.0;;;10.9;;
26824;SDS011;14402;48.178;11.566;2022-09-01T00:36:03;12.1;;;10.9;;
26824;SDS011;14402;48.178;11.566;2022-09-01T00:36:33;12.1;;;10.9;;
26824;SDS011;14402;48.178;11.566;2022-09-01T00:37:03;12.1;;;10.9;;
26824;SDS011;14402;48.178;11.566;2022-09-01T00:37:33;11.9;;;10.8;;
26824;SDS011;14402;48.178;11.566;2022-09-01T00:38:03;11.7;;;10.7;;
26824;SDS011;14402;48.178;11.566;2022-09-01T00:38:33;11.7;;;10.7;;
26824;SDS011;14402;48.178;11.566;2022-09-01T00:39:04;11.7;;;10.7;;
26824;SDS011;14402;48.178;11.566;2022-09-01T00:39:33;11.9;;;10.9;;
26824;SDS011;14402;48.178;11.566;2022-09-01T00:40:04;12.1;;;11.0;;
26824;SDS011;14402;48.178;11.566;2022-09-01T00:40:34;12.1;;;11.0;;
26824;SDS011;14402;48.178;11.566;2022-09-01T00:41:04;12.1;;;11.0;;
26824;SDS011;14402;48.178;11.566;2022-09-01T00:41:35;12.2;;;11.1;;
26824;SDS011;14402;48.178;11.566;2022-09-01T00:42:04;12.4;;;11.3;;
26824;SDS011;14402;48.178;11.566;2022-09-01T00:42:34;12.4;;;11.3;;
26824;SDS011;14402;48.178;11.566;2022-09-01T00:43:12;12.4;;;11.3;;
26824;SDS011;14402;48.178;11.566;2022-09-01T00:43:36;12.4;;;11.3;;
26824;SDS011;14402;48.178;11.566;2022-09-01T00:44:06;12.3;;;11.3;;
26824;SDS011;14402;48.178;11.566;2022-09-01T00:44:34;12.3;;;11.3;;
26824;SDS011;14402;48.178;11.566;2022-09-01T00:45:05;12.3;;;11.3;;
26824;SDS011;14402;48.178;11.566;2022-09-01T00:45:35;12.4;;;11.3;;
26824;SDS011;14402;48.178;11.566;2022-09-01T00:46:06;12.4;;;11.3;;
26824;SDS011;14402;48.178;11.566;2022-09-01T00:46:36;12.4;;;11.3;;
26824;SDS011;14402;48.178;11.566;2022-09-01T00:47:05;12.4;;;11.3;;
26824;SDS011;14402;48.178;11.566;2022-09-01T00:47:35;12.7;;;11.6;;
26824;SDS011;14402;48.178;11.566;2022-09-01T00:48:05;13.0;;;11.8;;
26824;SDS011;14402;48.178;11.566;2022-09-01T00:48:35;13.0;;;11.8;;
26824;SDS011;14402;48.178;11.566;2022-09-01T00:49:07;13.0;;;11.8;;
26824;SDS011;14402;48.178;11.566;2022-09-01T00:49:37;12.9;;;11.7;;
26824;SDS011;14402;48.178;11.566;2022-09-01T00:50:06;12.8;;;11.6;;
26824;SDS011;14402;48.178;11.566;2022-09-01T00:50:35;12.8;;;11.6;;
26824;SDS011;14402;48.178;11.566;2022-09-01T00:51:06;12.8;;;11.6;;
26824;SDS011;14402;48.178;11.566;2022-09-01T00:51:36;12.5;;;11.4;;
26824;SDS011;14402;48.178;11.566;2022-09-01T00:52:07;12.1;;;11.1;;
26824;SDS011;14402;48.178;11.566;2022-09-01T00:52:37;12.1;;;11.1;;
26824;SDS011;14402;48.178;11.566;2022-09-01T00:53:06;12.1;;;11.1;;
26824;SDS011;14402;48.178;11.566;2022-09-01T00:53:36;12.2;;;11.2;;
26824;SDS011;14402;48.178;11.566;2022-09-01T00:54:06;12.4;;;11.3;;
26824;SDS011;14402;48.178;11.566;2022-09-01T00:54:37;12.4;;;11.3;;
26824;SDS011;14402;48.178;11.566;2022-09-01T00:55:07;12.4;;;11.3;;
26824;SDS011;14402;48.178;11.566;2022-09-01T00:55:36;12.5;;;11.5;;
26824;SDS011;14402;48.178;11.566;2022-09-01T00:56:06;12.6;;;11.6;;
26824;SDS011;14402;48.178;11.566;2022-09-01T00:56:36;12.6;;;11.6;;
26824;SDS011;14402;48.178;11.566;2022-09-01T00:57:07;12.6;;;11.6;;
26824;SDS011;14402;48.178;11.566;2022-09-01T00:57:36;12.5;;;11.5;;
26824;SDS011;14402;48.178;11.566;2022-09-01T00:58:07;12.3;;;11.3;;
26824;SDS011;14402;48.178;11.566;2022-09-01T00:58:37;12.3;;;11.3;;
26824;SDS011;14402;48.178;11.566;2022-09-01T00:59:07;12.3;;;11.3;;
26824;SDS011;14402;48.178;11.566;2022-09-01T00:59:37;12.5;;;11.4;;
26824;SDS011;14402;48.178;11.566;2022-09-01T01:00:10;12.6;;;11.5;;
26824;SDS011;14402;48.178;11.566;2022-09-01T01:00:37;12.6;;;11.5;;
26824;SDS011;14402;48.178;11.566;2022-09-01T01:01:08;12.6;;;11.5;;
26824;SDS011;14402;48.178;11.566;2022-09-01T01:01:37;12.6;;;11.6;;
26824;SDS011;14402;48.178;11.566;2022-09-01T01:02:07;12.7;;;11.6;;
26824;SDS011;14402;48.178;11.566;2022-09-01T01:02:38;12.7;;;11.6;;
26824;SDS011;14402;48.178;11.566;2022-09-01T01:03:08;12.7;;;11.6;;
26824;SDS011;14402;48.178;11.566;2022-09-01T01:03:38;12.6;;;11.5;;
26824;SDS011;14402;48.178;11.566;2022-09-01T01:04:08;12.6;;;11.4;;
26824;SDS011;14402;48.178;11.566;2022-09-01T01:04:38;12.6;;;11.4;;
26824;SDS011;14402;48.178;11.566;2022-09-01T01:05:08;12.6;;;11.4;;
26824;SDS011;14402;48.178;11.566;2022-09-01T01:05:39;12.6;;;11.4;;
26824;SDS011;14402;48.178;11.566;2022-09-01T01:06:08;12.5;;;11.5;;
26824;SDS011;14402;48.178;11.566;2022-09-01T01:06:38;12.5;;;11.5;;
26824;SDS011;14402;48.178;11.566;2022-09-01T01:07:08;12.5;;;11.5;;
26824;SDS011;14402;48.178;11.566;2022-09-01T01:07:38;12.5;;;11.4;;
26824;SDS011;14402;48.178;11.566;2022-09-01T01:08:08;12.5;;;11.3;;
26824;SDS011;14402;48.178;11.566;2022-09-01T01:08:39;12.5;;;11.3;;
26824;SDS011;14402;48.178;11.566;2022-09-01T01:09:08;12.5;;;11.3;;
26824;SDS011;14402;48.178;11.566;2022-09-01T01:09:39;12.6;;;11.5;;
26824;SDS011;14402;48.178;11.566;2022-09-01T01:10:09;12.8;;;11.7;;
26824;SDS011;14402;48.178;11.566;2022-09-01T01:10:40;12.8;;;11.7;;
26824;SDS011;14402;48.178;11.566;2022-09-01T01:11:11;12.8;;;11.7;;
26824;SDS011;14402;48.178;11.566;2022-09-01T01:11:39;12.8;;;11.6;;
26824;SDS011;14402;48.178;11.566;2022-09-01T01:12:09;12.8;;;11.6;;
26824;SDS011;14402;48.178;11.566;2022-09-01T01:12:39;12.8;;;11.6;;
26824;SDS011;14402;48.178;11.566;2022-09-01T01:13:10;12.8;;;11.6;;
26824;SDS011;14402;48.178;11.566;2022-09-01T01:13:45;13.4;;;12.1;;
26824;SDS011;14402;48.178;11.566;2022-09-01T01:14:09;13.9;;;12.5;;
26824;SDS011;14402;48.178;11.566;2022-09-01T01:14:39;13.9;;;12.5;;
26824;SDS011;14402;48.178;11.566;2022-09-01T01:15:10;13.9;;;12.5;;
26824;SDS011;14402;48.178;11.566;2022-09-01T01:15:40;13.5;;;12.2;;
26824;SDS011;14402;48.178;11.566;2022-09-01T01:16:09;13.1;;;12.0;;
26824;SDS011;14402;48.178;11.566;2022-09-01T01:16:40;13.1;;;12.0;;
26824;SDS011;14402;48.178;11.566;2022-09-01T01:17:11;13.1;;;12.0;;
26824;SDS011;14402;48.178;11.566;2022-09-01T01:17:40;13.2;;;12.1;;
26824;SDS011;14402;48.178;11.566;2022-09-01T01:18:10;13.3;;;12.1;;
26824;SDS011;14402;48.178;11.566;2022-09-01T01:18:40;13.3;;;12.1;;
26824;SDS011;14402;48.178;11.566;2022-09-01T01:19:11;13.3;;;12.1;;
26824;SDS011;14402;48.178;11.566;2022-09-01T02:17:21;13.1;;;12.0;;
26824;SDS011;14402;48.178;11.566;2022-09-01T02:17:50;13.0;;;11.9;;
26824;SDS011;14402;48.178;11.566;2022-09-01T02:18:21;12.8;;;11.7;;
26824;SDS011;14402;48.178;11.566;2022-09-01T02:18:50;12.8;;;11.7;;
26824;SDS011;14402;48.178;11.566;2022-09-01T02:19:20;12.8;;;11.7;;
26824;SDS011;14402;48.178;11.566;2022-09-01T02:19:50;12.8;;;11.6;;
26824;SDS011;14402;48.178;11.566;2022-09-01T02:20:20;12.7;;;11.6;;
26824;SDS011;14402;48.178;11.566;2022-09-01T02:20:51;12.7;;;11.6;;
26824;SDS011;14402;48.178;11.566;2022-09-01T02:21:22;12.7;;;11.6;;
26824;SDS011;14402;48.178;11.566;2022-09-01T02:21:50;12.8;;;11.8;;
26824;SDS011;14402;48.178;11.566;2022-09-01T02:22:20;12.9;;;11.9;;
26824;SDS011;14402;48.178;11.566;2022-09-01T02:22:51;12.9;;;11.9;;
26824;SDS011;14402;48.178;11.566;2022-09-01T02:23:21;12.9;;;11.9;;
26824;SDS011;14402;48.178;11.566;2022-09-01T02:23:51;12.8;;;11.8;;
26824;SDS011;14402;48.178;11.566;2022-09-01T02:24:21;12.7;;;11.7;;
26824;SDS011;14402;48.178;11.566;2022-09-01T02:24:51;12.7;;;11.7;;
26824;SDS011;14402;48.178;11.566;2022-09-01T02:25:21;12.7;;;11.7;;
26824;SDS011;14402;48.178;11.566;2022-09-01T02:25:52;12.9;;;11.8;;
26824;SDS011;14402;48.178;11.566;2022-09-01T02:26:21;13.0;;;11.9;;
26824;SDS011;14402;48.178;11.566;2022-09-01T02:26:51;13.0;;;11.9;;
26824;SDS011;14402;48.178;11.566;2022-09-01T02:27:22;13.0;;;11.9;;
26824;SDS011;14402;48.178;11.566;2022-09-01T02:27:51;13.2;;;12.1;;
26824;SDS011;14402;48.178;11.566;2022-09-01T02:28:22;13.4;;;12.3;;
26824;SDS011;14402;48.178;11.566;2022-09-01T02:28:52;13.4;;;12.3;;
26824;SDS011;14402;48.178;11.566;2022-09-01T02:29:22;13.4;;;12.3;;
26824;SDS011;14402;48.178;11.566;2022-09-01T02:29:52;13.4;;;12.3;;
26824;SDS011;14402;48.178;11.566;2022-09-01T02:30:22;13.5;;;12.3;;
26824;SDS011;14402;48.178;11.566;2022-09-01T02:30:52;13.5;;;12.3;;
26824;SDS011;14402;48.178;11.566;2022-09-01T02:31:22;13.5;;;12.3;;
26824;SDS011;14402;48.178;11.566;2022-09-01T02:31:52;13.6;;;12.5;;
26824;SDS011;14402;48.178;11.566;2022-09-01T02:32:22;13.7;;;12.6;;
26824;SDS011;14402;48.178;11.566;2022-09-01T02:32:52;13.7;;;12.6;;
26824;SDS011;14402;48.178;11.566;2022-09-01T02:33:22;13.7;;;12.6;;
26824;SDS011;14402;48.178;11.566;2022-09-01T02:33:53;13.7;;;12.6;;
26824;SDS011;14402;48.178;11.566;2022-09-01T02:34:23;13.7;;;12.6;;
26824;SDS011;14402;48.178;11.566;2022-09-01T02:34:53;13.7;;;12.6;;
26824;SDS011;14402;48.178;11.566;2022-09-01T02:35:23;13.7;;;12.6;;
26824;SDS011;14402;48.178;11.566;2022-09-01T02:35:54;13.6;;;12.5;;
26824;SDS011;14402;48.178;11.566;2022-09-01T02:36:23;13.5;;;12.4;;
26824;SDS011;14402;48.178;11.566;2022-09-01T02:36:53;13.5;;;12.4;;
26824;SDS011;14402;48.178;11.566;2022-09-01T02:37:23;13.5;;;12.4;;
26824;SDS011;14402;48.178;11.566;2022-09-01T02:37:53;13.2;;;12.1;;
26824;SDS011;14402;48.178;11.566;2022-09-01T02:38:23;12.9;;;11.9;;
26824;SDS011;14402;48.178;11.566;2022-09-01T02:38:53;12.9;;;11.9;;
26824;SDS011;14402;48.178;11.566;2022-09-01T02:39:24;12.9;;;11.9;;
26824;SDS011;14402;48.178;11.566;2022-09-01T02:39:53;13.0;;;11.9;;
26824;SDS011;14402;48.178;11.566;2022-09-01T02:40:23;13.2;;;12.0;;
26824;SDS011;14402;48.178;11.566;2022-09-01T02:40:54;13.2;;;12.0;;
26824;SDS011;14402;48.178;11.566;2022-09-01T02:41:24;13.2;;;12.0;;
26824;SDS011;14402;48.178;11.566;2022-09-01T02:41:54;12.6;;;11.6;;
26824;SDS011;14402;48.178;11.566;2022-09-01T02:42:24;12.1;;;11.1;;
26824;SDS011;14402;48.178;11.566;2022-09-01T02:42:54;12.1;;;11.1;;
26824;SDS011;14402;48.178;11.566;2022-09-01T02:43:24;12.1;;;11.1;;
26824;SDS011;14402;48.178;11.566;2022-09-01T02:43:54;12.2;;;11.1;;
26824;SDS011;14402;48.178;11.566;2022-09-01T02:44:24;12.3;;;11.2;;
26824;SDS011;14402;48.178;11.566;2022-09-01T02:44:54;12.3;;;11.2;;
26824;SDS011;14402;48.178;11.566;2022-09-01T02:45:24;12.3;;;11.2;;
26824;SDS011;14402;48.178;11.566;2022-09-01T02:45:55;12.2;;;11.2;;
26824;SDS011;14402;48.178;11.566;2022-09-01T02:46:24;12.2;;;11.2;;
26824;SDS011;14402;48.178;11.566;2022-09-01T02:46:55;12.2;;;11.2;;
26824;SDS011;14402;48.178;11.566;2022-09-01T02:47:25;12.2;;;11.2;;
26824;SDS011;14402;48.178;11.566;2022-09-01T02:47:55;12.2;;;11.2;;
26824;SDS011;14402;48.178;11.566;2022-09-01T02:48:25;12.3;;;11.2;;
26824;SDS011;14402;48.178;11.566;2022-09-01T02:48:55;12.3;;;11.2;;
26824;SDS011;14402;48.178;11.566;2022-09-01T02:49:25;12.3;;;11.2;;
26824;SDS011;14402;48.178;11.566;2022-09-01T02:49:55;12.2;;;11.1;;
26824;SDS011;14402;48.178;11.566;2022-09-01T02:50:25;12.1;;;11.1;;
26824;SDS011;14402;48.178;11.566;2022-09-01T02:50:55;12.1;;;11.1;;
26824;SDS011;14402;48.178;11.566;2022-09-01T02:51:25;12.1;;;11.1;;
26824;SDS011;14402;48.178;11.566;2022-09-01T02:51:56;12.1;;;11.0;;
26824;SDS011;14402;48.178;11.566;2022-09-01T02:52:25;12.0;;;10.9;;
26824;SDS011;14402;48.178;11.566;2022-09-01T02:52:55;12.0;;;10.9;;
26824;SDS011;14402;48.178;11.566;2022-09-01T02:53:26;12.0;;;10.9;;
26824;SDS011;14402;48.178;11.566;2022-09-01T02:53:56;11.9;;;10.9;;
26824;SDS011;14402;48.178;11.566;2022-09-01T02:54:26;11.9;;;10.9;;
26824;SDS011;14402;48.178;11.566;2022-09-01T02:54:56;11.9;;;10.9;;
26824;SDS011;14402;48.178;11.566;2022-09-01T02:55:26;11.9;;;10.9;;
26824;SDS011;14402;48.178;11.566;2022-09-01T02:55:56;11.9;;;10.9;;
26824;SDS011;14402;48.178;11.566;2022-09-01T02:56:26;12.1;;;11.1;;
26824;SDS011;14402;48.178;11.566;2022-09-01T02:56:56;12.4;;;11.3;;
26824;SDS011;14402;48.178;11.566;2022-09-01T02:57:26;12.4;;;11.3;;
26824;SDS011;14402;48.178;11.566;2022-09-01T02:57:56;12.4;;;11.3;;
26824;SDS011;14402;48.178;11.566;2022-09-01T02:58:27;12.5;;;11.4;;
26824;SDS011;14402;48.178;11.566;2022-09-01T02:58:56;12.6;;;11.4;;
26824;SDS011;14402;48.178;11.566;2022-09-01T02:59:27;12.6;;;11.4;;
26824;SDS011;14402;48.178;11.566;2022-09-01T02:59:57;12.6;;;11.4;;
26824;SDS011;14402;48.178;11.566;2022-09-01T03:00:27;12.9;;;11.4;;
26824;SDS011;14402;48.178;11.566;2022-09-01T03:00:57;13.2;;;11.4;;
26824;SDS011;14402;48.178;11.566;2022-09-01T03:01:27;13.2;;;11.4;;
26824;SDS011;14402;48.178;11.566;2022-09-01T03:01:57;13.2;;;11.4;;
26824;SDS011;14402;48.178;11.566;2022-09-01T03:02:27;12.6;;;11.2;;
26824;SDS011;14402;48.178;11.566;2022-09-01T03:02:58;12.0;;;11.0;;
26824;SDS011;14402;48.178;11.566;2022-09-01T03:03:27;12.0;;;11.0;;
26824;SDS011;14402;48.178;11.566;2022-09-01T03:03:58;12.0;;;11.0;;
26824;SDS011;14402;48.178;11.566;2022-09-01T03:04:28;11.9;;;10.9;;
26824;SDS011;14402;48.178;11.566;2022-09-01T03:04:57;11.8;;;10.7;;
26824;SDS011;14402;48.178;11.566;2022-09-01T03:05:28;11.8;;;10.7;;
26824;SDS011;14402;48.178;11.566;2022-09-01T03:05:58;11.8;;;10.7;;
26824;SDS011;14402;48.178;11.566;2022-09-01T03:06:28;11.8;;;10.7;;
26824;SDS011;14402;48.178;11.566;2022-09-01T03:06:58;11.7;;;10.7;;
26824;SDS011;14402;48.178;11.566;2022-09-01T03:07:28;11.7;;;10.7;;
26824;SDS011;14402;48.178;11.566;2022-09-01T03:07:59;11.7;;;10.7;;
26824;SDS011;14402;48.178;11.566;2022-09-01T03:08:28;12.1;;;11.0;;
26824;SDS011;14402;48.178;11.566;2022-09-01T03:08:58;12.5;;;11.4;;
26824;SDS011;14402;48.178;11.566;2022-09-01T03:09:28;12.5;;;11.4;;
26824;SDS011;14402;48.178;11.566;2022-09-01T03:09:58;12.5;;;11.4;;
26824;SDS011;14402;48.178;11.566;2022-09-01T03:10:30;12.4;;;11.2;;
26824;SDS011;14402;48.178;11.566;2022-09-01T03:10:58;12.2;;;11.0;;
26824;SDS011;14402;48.178;11.566;2022-09-01T03:11:29;12.2;;;11.0;;
26824;SDS011;14402;48.178;11.566;2022-09-01T03:11:59;12.2;;;11.0;;
26824;SDS011;14402;48.178;11.566;2022-09-01T03:12:29;12.5;;;11.3;;
26824;SDS011;14402;48.178;11.566;2022-09-01T03:12:59;12.9;;;11.6;;
26824;SDS011;14402;48.178;11.566;2022-09-01T03:13:29;12.9;;;11.6;;
26824;SDS011;14402;48.178;11.566;2022-09-01T03:13:59;12.9;;;11.6;;
26824;SDS011;14402;48.178;11.566;2022-09-01T03:14:29;12.7;;;11.5;;
26824;SDS011;14402;48.178;11.566;2022-09-01T03:14:59;12.5;;;11.3;;
26824;SDS011;14402;48.178;11.566;2022-09-01T03:15:29;12.5;;;11.3;;
26824;SDS011;14402;48.178;11.566;2022-09-01T03:16:00;12.5;;;11.3;;
26824;SDS011;14402;48.178;11.566;2022-09-01T03:16:29;12.4;;;11.2;;
26824;SDS011;14402;48.178;11.566;2022-09-01T03:16:59;12.2;;;11.1;;
26824;SDS011;14402;48.178;11.566;2022-09-01T03:17:31;12.2;;;11.1;;
26824;SDS011;14402;48.178;11.566;2022-09-01T03:18:00;12.2;;;11.1;;
26824;SDS011;14402;48.178;11.566;2022-09-01T03:18:30;12.5;;;11.5;;
26824;SDS011;14402;48.178;11.566;2022-09-01T03:19:00;12.9;;;11.8;;
26824;SDS011;14402;48.178;11.566;2022-09-01T03:19:30;12.9;;;11.8;;
26824;SDS011;14402;48.178;11.566;2022-09-01T03:20:00;12.9;;;11.8;;
26824;SDS011;14402;48.178;11.566;2022-09-01T03:20:31;12.8;;;11.7;;
26824;SDS011;14402;48.178;11.566;2022-09-01T03:21:00;12.6;;;11.6;;
26824;SDS011;14402;48.178;11.566;2022-09-01T03:21:30;12.6;;;11.6;;
26824;SDS011;14402;48.178;11.566;2022-09-01T03:22:01;12.6;;;11.6;;
26824;SDS011;14402;48.178;11.566;2022-09-01T03:22:30;12.5;;;11.5;;
26824;SDS011;14402;48.178;11.566;2022-09-01T03:23:01;12.4;;;11.3;;
26824;SDS011;14402;48.178;11.566;2022-09-01T03:23:31;12.4;;;11.3;;
26824;SDS011;14402;48.178;11.566;2022-09-01T03:24:01;12.4;;;11.3;;
26824;SDS011;14402;48.178;11.566;2022-09-01T03:24:31;12.3;;;11.2;;
26824;SDS011;14402;48.178;11.566;2022-09-01T03:25:01;12.2;;;11.1;;
26824;SDS011;14402;48.178;11.566;2022-09-01T03:25:31;12.2;;;11.1;;
26824;SDS011;14402;48.178;11.566;2022-09-01T03:26:06;12.2;;;11.1;;
26824;SDS011;14402;48.178;11.566;2022-09-01T03:26:31;12.4;;;11.2;;
26824;SDS011;14402;48.178;11.566;2022-09-01T03:27:01;12.5;;;11.4;;
26824;SDS011;14402;48.178;11.566;2022-09-01T03:27:31;12.5;;;11.4;;
26824;SDS011;14402;48.178;11.566;2022-09-01T03:28:02;12.5;;;11.4;;
26824;SDS011;14402;48.178;11.566;2022-09-01T03:28:32;12.6;;;11.4;;
26824;SDS011;14402;48.178;11.566;2022-09-01T03:29:02;12.6;;;11.5;;
26824;SDS011;14402;48.178;11.566;2022-09-01T03:29:32;12.6;;;11.5;;
26824;SDS011;14402;48.178;11.566;2022-09-01T03:30:02;12.6;;;11.5;;
26824;SDS011;14402;48.178;11.566;2022-09-01T03:30:34;12.8;;;11.6;;
26824;SDS011;14402;48.178;11.566;2022-09-01T03:31:02;13.0;;;11.8;;
26824;SDS011;14402;48.178;11.566;2022-09-01T03:31:32;13.0;;;11.8;;
26824;SDS011;14402;48.178;11.566;2022-09-01T03:32:02;13.0;;;11.8;;
26824;SDS011;14402;48.178;11.566;2022-09-01T03:32:32;13.1;;;11.9;;
26824;SDS011;14402;48.178;11.566;2022-09-01T03:33:02;13.3;;;11.9;;
26824;SDS011;14402;48.178;11.566;2022-09-01T03:33:32;13.3;;;11.9;;
26824;SDS011;14402;48.178;11.566;2022-09-01T03:34:03;13.3;;;11.9;;
26824;SDS011;14402;48.178;11.566;2022-09-01T03:34:32;12.8;;;11.6;;
26824;SDS011;14402;48.178;11.566;2022-09-01T03:35:03;12.3;;;11.3;;
26824;SDS011;14402;48.178;11.566;2022-09-01T03:35:33;12.3;;;11.3;;
26824;SDS011;14402;48.178;11.566;2022-09-01T03:36:03;12.3;;;11.3;;
26824;SDS011;14402;48.178;11.566;2022-09-01T03:36:33;12.5;;;11.5;;
26824;SDS011;14402;48.178;11.566;2022-09-01T03:37:03;12.7;;;11.6;;
26824;SDS011;14402;48.178;11.566;2022-09-01T03:37:33;12.7;;;11.6;;
26824;SDS011;14402;48.178;11.566;2022-09-01T03:38:03;12.7;;;11.6;;
26824;SDS011;14402;48.178;11.566;2022-09-01T03:38:33;13.0;;;11.9;;
26824;SDS011;14402;48.178;11.566;2022-09-01T03:39:03;13.3;;;12.2;;
26824;SDS011;14402;48.178;11.566;2022-09-01T03:39:33;13.3;;;12.2;;
26824;SDS011;14402;48.178;11.566;2022-09-01T03:40:04;13.3;;;12.2;;
26824;SDS011;14402;48.178;11.566;2022-09-01T03:40:34;13.4;;;12.3;;
26824;SDS011;14402;48.178;11.566;2022-09-01T03:41:04;13.5;;;12.4;;
26824;SDS011;14402;48.178;11.566;2022-09-01T03:41:34;13.5;;;12.4;;
26824;SDS011;14402;48.178;11.566;2022-09-01T03:42:04;13.5;;;12.4;;
26824;SDS011;14402;48.178;11.566;2022-09-01T03:42:34;13.5;;;12.4;;
26824;SDS011;14402;48.178;11.566;2022-09-01T03:43:04;13.5;;;12.4;;
26824;SDS011;14402;48.178;11.566;2022-09-01T03:43:34;13.5;;;12.4;;
26824;SDS011;14402;48.178;11.566;2022-09-01T03:44:04;13.5;;;12.4;;
26824;SDS011;14402;48.178;11.566;2022-09-01T03:44:34;13.6;;;12.4;;
26824;SDS011;14402;48.178;11.566;2022-09-01T03:45:04;13.8;;;12.5;;
26824;SDS011;14402;48.178;11.566;2022-09-01T03:45:34;13.8;;;12.5;;
26824;SDS011;14402;48.178;11.566;2022-09-01T03:46:04;13.8;;;12.5;;
26824;SDS011;14402;48.178;11.566;2022-09-01T03:46:34;14.0;;;12.6;;
26824;SDS011;14402;48.178;11.566;2022-09-01T03:47:04;14.1;;;12.7;;
26824;SDS011;14402;48.178;11.566;2022-09-01T03:47:35;14.1;;;12.7;;
26824;SDS011;14402;48.178;11.566;2022-09-01T03:48:05;14.1;;;12.7;;
26824;SDS011;14402;48.178;11.566;2022-09-01T03:48:35;13.8;;;12.5;;
26824;SDS011;14402;48.178;11.566;2022-09-01T03:49:05;13.4;;;12.3;;
26824;SDS011;14402;48.178;11.566;2022-09-01T03:49:35;13.4;;;12.3;;
26824;SDS011;14402;48.178;11.566;2022-09-01T03:50:06;13.4;;;12.3;;
26824;SDS011;14402;48.178;11.566;2022-09-01T03:50:35;13.2;;;12.1;;
26824;SDS011;14402;48.178;11.566;2022-09-01T03:51:05;13.1;;;12.0;;
26824;SDS011;14402;48.178;11.566;2022-09-01T03:51:35;13.1;;;12.0;;
26824;SDS011;14402;48.178;11.566;2022-09-01T03:52:05;13.1;;;12.0;;
26824;SDS011;14402;48.178;11.566;2022-09-01T03:52:35;13.4;;;12.1;;
26824;SDS011;14402;48.178;11.566;2022-09-01T03:53:06;13.6;;;12.3;;
26824;SDS011;14402;48.178;11.566;2022-09-01T03:53:36;13.6;;;12.3;;
26824;SDS011;14402;48.178;11.566;2022-09-01T03:54:06;13.6;;;12.3;;
26824;SDS011;14402;48.178;11.566;2022-09-01T03:54:36;13.9;;;12.6;;
26824;SDS011;14402;48.178;11.566;2022-09-01T03:55:06;14.2;;;13.0;;
26824;SDS011;14402;48.178;11.566;2022-09-01T03:55:36;14.2;;;13.0;;
26824;SDS011;14402;48.178;11.566;2022-09-01T03:56:06;14.2;;;13.0;;
26824;SDS011;14402;48.178;11.566;2022-09-01T03:56:36;14.1;;;12.9;;